sensor_id;sensor_type;location;lat;lon;timestamp;pressure;altitude;pressure_sealevel;temperature;humidity
18790;BME280;9523;42.650;23.386;2023-02-28T00:01:06;61328.44;;;-141.56;100.00
18790;BME280;9523;42.650;23.386;2023-02-28T00:03:33;61328.44;;;-141.56;100.00
18790;BME280;9523;42.650;23.386;2023-02-28T00:06:01;61328.44;;;-141.56;100.00
18790;BME280;9523;42.650;23.386;2023-02-28T00:08:28;61328.44;;;-141.56;100.00
18790;BME280;9523;42.650;23.386;2023-02-28T00:10:55;61328.44;;;-141.56;100.00
18790;BME280;9523;42.650;23.386;2023-02-28T00:13:22;61328.44;;;-141.56;100.00
18790;BME280;9523;42.650;23.386;2023-02-28T00:16:00;61328.44;;;-141.56;100.00
18790;BME280;9523;42.650;23.386;2023-02-28T00:18:27;61328.44;;;-141.56;100.00
18790;BME280;9523;42.650;23.386;2023-02-28T00:20:54;61328.44;;;-141.56;100.00
18790;BME280;9523;42.650;23.386;2023-02-28T00:23:21;61328.44;;;-141.56;100.00
18790;BME280;9523;42.650;23.386;2023-02-28T00:25:48;61328.44;;;-141.56;100.00
18790;BME280;9523;42.650;23.386;2023-02-28T00:28:15;61328.44;;;-141.56;100.00
18790;BME280;9523;42.650;23.386;2023-02-28T00:33:16;95089.53;;;6.44;100.00
18790;BME280;9523;42.650;23.386;2023-02-28T00:35:46;95092.78;;;6.56;100.00
18790;BME280;9523;42.650;23.386;2023-02-28T00:38:14;95098.56;;;6.58;100.00
18790;BME280;9523;42.650;23.386;2023-02-28T00:40:40;95092.31;;;6.64;100.00
18790;BME280;9523;42.650;23.386;2023-02-28T00:43:07;95079.50;;;6.68;100.00
18790;BME280;9523;42.650;23.386;2023-02-28T00:45:34;95076.59;;;6.64;100.00
18790;BME280;9523;42.650;23.386;2023-02-28T00:48:01;95070.50;;;6.58;100.00
18790;BME280;9523;42.650;23.386;2023-02-28T00:50:31;95067.09;;;6.58;100.00
18790;BME280;9523;42.650;23.386;2023-02-28T00:53:01;95071.53;;;6.57;100.00
18790;BME280;9523;42.650;23.386;2023-02-28T00:55:27;95065.03;;;6.60;100.00
18790;BME280;9523;42.650;23.386;2023-02-28T00:57:54;95051.00;;;6.44;100.00
18790;BME280;9523;42.650;23.386;2023-02-28T01:00:21;95080.47;;;6.61;100.00
18790;BME280;9523;42.650;23.386;2023-02-28T01:02:48;95094.19;;;6.69;100.00
18790;BME280;9523;42.650;23.386;2023-02-28T01:05:15;95078.63;;;6.57;100.00
18790;BME280;9523;42.650;23.386;2023-02-28T01:07:43;95093.88;;;6.60;100.00
18790;BME280;9523;42.650;23.386;2023-02-28T01:10:10;95089.09;;;6.57;100.00
18790;BME280;9523;42.650;23.386;2023-02-28T01:12:37;95084.91;;;6.56;100.00
18790;BME280;9523;42.650;23.386;2023-02-28T01:15:12;95086.78;;;6.60;100.00
18790;BME280;9523;42.650;23.386;2023-02-28T01:17:39;95059.16;;;6.48;100.00
18790;BME280;9523;42.650;23.386;2023-02-28T01:20:07;95080.28;;;6.68;100.00
18790;BME280;9523;42.650;23.386;2023-02-28T01:22:35;95076.88;;;6.68;100.00
18790;BME280;9523;42.650;23.386;2023-02-28T01:25:03;95073.47;;;6.67;100.00
18790;BME280;9523;42.650;23.386;2023-02-28T01:27:30;95075.03;;;6.68;100.00
18790;BME280;9523;42.650;23.386;2023-02-28T01:29:57;95074.50;;;6.66;100.00
18790;BME280;9523;42.650;23.386;2023-02-28T01:32:24;95067.38;;;6.56;100.00
18790;BME280;9523;42.650;23.386;2023-02-28T01:34:51;95064.44;;;6.53;100.00
18790;BME280;9523;42.650;23.386;2023-02-28T01:37:18;95068.91;;;6.57;100.00
18790;BME280;9523;42.650;23.386;2023-02-28T01:39:45;95074.22;;;6.63;100.00
18790;BME280;9523;42.650;23.386;2023-02-28T01:42:13;95078.31;;;6.53;100.00
18790;BME280;9523;42.650;23.386;2023-02-28T01:45:02;95079.38;;;6.52;100.00
18790;BME280;9523;42.650;23.386;2023-02-28T01:47:31;95077.53;;;6.53;100.00
18790;BME280;9523;42.650;23.386;2023-02-28T01:49:59;95073.31;;;6.47;100.00
18790;BME280;9523;42.650;23.386;2023-02-28T01:52:27;95072.50;;;6.46;100.00
18790;BME280;9523;42.650;23.386;2023-02-28T01:54:56;95078.53;;;6.47;100.00
18790;BME280;9523;42.650;23.386;2023-02-28T01:57:29;95080.53;;;6.35;100.00
18790;BME280;9523;42.650;23.386;2023-02-28T02:00:05;95071.66;;;6.36;100.00
18790;BME280;9523;42.650;23.386;2023-02-28T02:02:36;95072.38;;;6.31;100.00
18790;BME280;9523;42.650;23.386;2023-02-28T02:05:06;95066.44;;;6.09;100.00
18790;BME280;9523;42.650;23.386;2023-02-28T02:07:35;95076.16;;;6.13;100.00
18790;BME280;9523;42.650;23.386;2023-02-28T02:10:06;95020.72;;;5.68;100.00
18790;BME280;9523;42.650;23.386;2023-02-28T02:12:49;95074.41;;;5.92;100.00
18790;BME280;9523;42.650;23.386;2023-02-28T02:15:23;95079.19;;;5.79;100.00
18790;BME280;9523;42.650;23.386;2023-02-28T02:17:53;95071.59;;;5.77;100.00
18790;BME280;9523;42.650;23.386;2023-02-28T02:20:58;95077.88;;;5.76;100.00
18790;BME280;9523;42.650;23.386;2023-02-28T02:27:08;95073.72;;;5.80;100.00
18790;BME280;9523;42.650;23.386;2023-02-28T02:29:47;95068.06;;;5.88;100.00
18790;BME280;9523;42.650;23.386;2023-02-28T02:32:45;95071.63;;;6.04;100.00
18790;BME280;9523;42.650;23.386;2023-02-28T02:35:20;95078.19;;;6.06;100.00
18790;BME280;9523;42.650;23.386;2023-02-28T02:37:55;95079.94;;;5.96;100.00
18790;BME280;9523;42.650;23.386;2023-02-28T02:40:29;95072.41;;;6.04;100.00
18790;BME280;9523;42.650;23.386;2023-02-28T02:43:01;95071.97;;;6.12;100.00
18790;BME280;9523;42.650;23.386;2023-02-28T02:45:32;95080.53;;;6.35;100.00
18790;BME280;9523;42.650;23.386;2023-02-28T02:48:02;95090.00;;;6.36;100.00
18790;BME280;9523;42.650;23.386;2023-02-28T02:50:35;95086.34;;;6.37;100.00
18790;BME280;9523;42.650;23.386;2023-02-28T02:53:05;95085.50;;;6.31;100.00
18790;BME280;9523;42.650;23.386;2023-02-28T02:55:36;95084.47;;;6.32;100.00
18790;BME280;9523;42.650;23.386;2023-02-28T02:58:07;95064.41;;;6.16;100.00
18790;BME280;9523;42.650;23.386;2023-02-28T03:00:38;95099.00;;;6.50;100.00
18790;BME280;9523;42.650;23.386;2023-02-28T03:03:07;95107.91;;;6.49;100.00
18790;BME280;9523;42.650;23.386;2023-02-28T03:05:44;95110.63;;;6.59;100.00
18790;BME280;9523;42.650;23.386;2023-02-28T03:08:12;95111.41;;;6.59;100.00
18790;BME280;9523;42.650;23.386;2023-02-28T03:10:41;95123.78;;;6.64;100.00
18790;BME280;9523;42.650;23.386;2023-02-28T03:18:53;95132.44;;;6.65;100.00
18790;BME280;9523;42.650;23.386;2023-02-28T03:21:30;95133.22;;;6.65;100.00
18790;BME280;9523;42.650;23.386;2023-02-28T03:24:04;95132.19;;;6.66;100.00
18790;BME280;9523;42.650;23.386;2023-02-28T03:26:34;95115.31;;;6.57;100.00
18790;BME280;9523;42.650;23.386;2023-02-28T03:29:07;95137.47;;;6.71;100.00
18790;BME280;9523;42.650;23.386;2023-02-28T03:31:41;95136.16;;;6.74;100.00
18790;BME280;9523;42.650;23.386;2023-02-28T03:34:13;95138.25;;;6.72;100.00
18790;BME280;9523;42.650;23.386;2023-02-28T03:36:48;95134.84;;;6.71;100.00
18790;BME280;9523;42.650;23.386;2023-02-28T03:39:18;95128.84;;;6.76;100.00
18790;BME280;9523;42.650;23.386;2023-02-28T03:41:51;95130.63;;;6.70;100.00
18790;BME280;9523;42.650;23.386;2023-02-28T03:44:22;95138.16;;;6.56;100.00
18790;BME280;9523;42.650;23.386;2023-02-28T03:46:54;95147.28;;;6.54;100.00
18790;BME280;9523;42.650;23.386;2023-02-28T03:49:27;95135.19;;;6.53;100.00
18790;BME280;9523;42.650;23.386;2023-02-28T03:52:01;95134.13;;;6.49;100.00
18790;BME280;9523;42.650;23.386;2023-02-28T03:54:31;95155.72;;;6.61;100.00
18790;BME280;9523;42.650;23.386;2023-02-28T03:57:05;95145.56;;;6.65;100.00
18790;BME280;9523;42.650;23.386;2023-02-28T03:59:37;95152.53;;;6.54;100.00
18790;BME280;9523;42.650;23.386;2023-02-28T04:02:06;95154.69;;;6.62;100.00
18790;BME280;9523;42.650;23.386;2023-02-28T04:04:33;95147.56;;;6.57;100.00
18790;BME280;9523;42.650;23.386;2023-02-28T04:07:04;95148.63;;;6.56;100.00
18790;BME280;9523;42.650;23.386;2023-02-28T04:09:31;95136.28;;;6.57;100.00
18790;BME280;9523;42.650;23.386;2023-02-28T04:11:58;95150.94;;;6.53;100.00
18790;BME280;9523;42.650;23.386;2023-02-28T04:14:25;95132.72;;;6.36;100.00
18790;BME280;9523;42.650;23.386;2023-02-28T04:16:52;95141.47;;;6.47;100.00
18790;BME280;9523;42.650;23.386;2023-02-28T04:19:19;95153.31;;;6.54;100.00
18790;BME280;9523;42.650;23.386;2023-02-28T04:21:48;95141.75;;;6.50;100.00
18790;BME280;9523;42.650;23.386;2023-02-28T04:24:18;95146.19;;;6.50;100.00
18790;BME280;9523;42.650;23.386;2023-02-28T04:26:46;95128.84;;;6.44;100.00
18790;BME280;9523;42.650;23.386;2023-02-28T04:29:19;95122.41;;;6.30;100.00
18790;BME280;9523;42.650;23.386;2023-02-28T04:31:46;95138.31;;;6.45;100.00
18790;BME280;9523;42.650;23.386;2023-02-28T04:34:13;95146.41;;;6.43;100.00
18790;BME280;9523;42.650;23.386;2023-02-28T04:36:40;95146.63;;;6.37;100.00
18790;BME280;9523;42.650;23.386;2023-02-28T04:39:09;95152.16;;;6.40;100.00
18790;BME280;9523;42.650;23.386;2023-02-28T04:41:38;95151.25;;;6.30;100.00
18790;BME280;9523;42.650;23.386;2023-02-28T04:44:04;95161.84;;;6.40;100.00
18790;BME280;9523;42.650;23.386;2023-02-28T04:46:31;95180.25;;;6.45;100.00
18790;BME280;9523;42.650;23.386;2023-02-28T04:48:58;95172.41;;;6.50;100.00
18790;BME280;9523;42.650;23.386;2023-02-28T04:51:25;95152.59;;;6.32;100.00
18790;BME280;9523;42.650;23.386;2023-02-28T04:53:52;95105.84;;;5.97;100.00
18790;BME280;9523;42.650;23.386;2023-02-28T04:56:19;95174.22;;;6.44;100.00
18790;BME280;9523;42.650;23.386;2023-02-28T04:58:48;95165.50;;;6.39;100.00
18790;BME280;9523;42.650;23.386;2023-02-28T05:01:19;95170.22;;;6.37;100.00
18790;BME280;9523;42.650;23.386;2023-02-28T05:03:47;95171.25;;;6.36;100.00
18790;BME280;9523;42.650;23.386;2023-02-28T05:06:14;95168.56;;;6.31;100.00
18790;BME280;9523;42.650;23.386;2023-02-28T05:08:41;95149.38;;;6.25;100.00
18790;BME280;9523;42.650;23.386;2023-02-28T05:11:14;95155.50;;;6.36;100.00
18790;BME280;9523;42.650;23.386;2023-02-28T05:13:41;95172.50;;;6.33;100.00
18790;BME280;9523;42.650;23.386;2023-02-28T05:16:09;95178.81;;;6.32;100.00
18790;BME280;9523;42.650;23.386;2023-02-28T05:18:36;95174.94;;;6.40;100.00
18790;BME280;9523;42.650;23.386;2023-02-28T05:21:03;95189.09;;;6.39;100.00
18790;BME280;9523;42.650;23.386;2023-02-28T05:23:30;95187.47;;;6.33;100.00
18790;BME280;9523;42.650;23.386;2023-02-28T05:25:57;95176.00;;;6.17;100.00
18790;BME280;9523;42.650;23.386;2023-02-28T05:28:24;95193.91;;;6.25;100.00
18790;BME280;9523;42.650;23.386;2023-02-28T05:30:51;95196.28;;;6.27;100.00
18790;BME280;9523;42.650;23.386;2023-02-28T05:33:19;95197.31;;;6.26;100.00
18790;BME280;9523;42.650;23.386;2023-02-28T05:35:46;95182.09;;;6.23;100.00
18790;BME280;9523;42.650;23.386;2023-02-28T05:38:13;95183.69;;;6.24;100.00
18790;BME280;9523;42.650;23.386;2023-02-28T05:40:40;95198.91;;;6.27;100.00
18790;BME280;9523;42.650;23.386;2023-02-28T05:43:10;95186.38;;;6.29;100.00
18790;BME280;9523;42.650;23.386;2023-02-28T05:45:38;95195.25;;;6.28;100.00
18790;BME280;9523;42.650;23.386;2023-02-28T05:48:05;95202.19;;;6.39;100.00
18790;BME280;9523;42.650;23.386;2023-02-28T05:50:33;95215.44;;;6.54;100.00
18790;BME280;9523;42.650;23.386;2023-02-28T05:53:00;95220.09;;;6.47;100.00
18790;BME280;9523;42.650;23.386;2023-02-28T05:55:27;95222.78;;;6.52;100.00
18790;BME280;9523;42.650;23.386;2023-02-28T05:57:54;95213.91;;;6.58;100.00
18790;BME280;9523;42.650;23.386;2023-02-28T06:00:21;95214.34;;;6.50;100.00
18790;BME280;9523;42.650;23.386;2023-02-28T06:02:48;95223.38;;;6.59;100.00
18790;BME280;9523;42.650;23.386;2023-02-28T06:05:17;95213.97;;;6.63;100.00
18790;BME280;9523;42.650;23.386;2023-02-28T06:07:46;95210.91;;;6.71;100.00
18790;BME280;9523;42.650;23.386;2023-02-28T06:10:13;95214.84;;;6.74;100.00
18790;BME280;9523;42.650;23.386;2023-02-28T06:12:40;95212.72;;;6.71;100.00
18790;BME280;9523;42.650;23.386;2023-02-28T06:15:12;95208.63;;;6.85;100.00
18790;BME280;9523;42.650;23.386;2023-02-28T06:17:39;95221.00;;;6.89;100.00
18790;BME280;9523;42.650;23.386;2023-02-28T06:20:07;95197.91;;;6.86;100.00
18790;BME280;9523;42.650;23.386;2023-02-28T06:22:35;95219.75;;;6.97;100.00
18790;BME280;9523;42.650;23.386;2023-02-28T06:25:04;95211.75;;;7.08;100.00
18790;BME280;9523;42.650;23.386;2023-02-28T06:27:31;95217.34;;;7.22;100.00
18790;BME280;9523;42.650;23.386;2023-02-28T06:29:58;95227.38;;;7.30;100.00
18790;BME280;9523;42.650;23.386;2023-02-28T06:32:25;95218.72;;;7.30;100.00
18790;BME280;9523;42.650;23.386;2023-02-28T06:34:52;95216.63;;;7.32;100.00
18790;BME280;9523;42.650;23.386;2023-02-28T06:37:19;95225.41;;;7.47;100.00
18790;BME280;9523;42.650;23.386;2023-02-28T06:39:46;95220.69;;;7.49;100.00
18790;BME280;9523;42.650;23.386;2023-02-28T06:42:14;95227.75;;;7.49;100.00
18790;BME280;9523;42.650;23.386;2023-02-28T06:44:41;95209.84;;;7.36;100.00
18790;BME280;9523;42.650;23.386;2023-02-28T06:47:09;95234.13;;;7.58;100.00
18790;BME280;9523;42.650;23.386;2023-02-28T06:49:36;95167.94;;;7.14;100.00
18790;BME280;9523;42.650;23.386;2023-02-28T06:52:04;95232.06;;;7.60;100.00
18790;BME280;9523;42.650;23.386;2023-02-28T06:54:36;95243.31;;;7.55;100.00
18790;BME280;9523;42.650;23.386;2023-02-28T06:57:03;95222.97;;;7.41;100.00
18790;BME280;9523;42.650;23.386;2023-02-28T06:59:31;95244.38;;;7.60;100.00
18790;BME280;9523;42.650;23.386;2023-02-28T07:01:58;95236.78;;;7.63;100.00
18790;BME280;9523;42.650;23.386;2023-02-28T07:04:25;95236.72;;;7.53;100.00
18790;BME280;9523;42.650;23.386;2023-02-28T07:06:53;95236.72;;;7.53;100.00
18790;BME280;9523;42.650;23.386;2023-02-28T07:09:21;95233.81;;;7.49;100.00
18790;BME280;9523;42.650;23.386;2023-02-28T07:11:48;95232.81;;;7.55;100.00
18790;BME280;9523;42.650;23.386;2023-02-28T07:14:15;95227.75;;;7.49;100.00
18790;BME280;9523;42.650;23.386;2023-02-28T07:16:44;95226.72;;;7.50;100.00
18790;BME280;9523;42.650;23.386;2023-02-28T07:19:11;95232.72;;;7.45;100.00
18790;BME280;9523;42.650;23.386;2023-02-28T07:21:38;95237.31;;;7.65;100.00
18790;BME280;9523;42.650;23.386;2023-02-28T07:24:06;95230.25;;;7.71;100.00
18790;BME280;9523;42.650;23.386;2023-02-28T07:26:33;95221.59;;;7.70;100.00
18790;BME280;9523;42.650;23.386;2023-02-28T07:29:00;95235.34;;;7.92;100.00
18790;BME280;9523;42.650;23.386;2023-02-28T07:31:27;95221.47;;;7.97;100.00
18790;BME280;9523;42.650;23.386;2023-02-28T07:33:56;95221.00;;;8.10;100.00
18790;BME280;9523;42.650;23.386;2023-02-28T07:36:22;95242.41;;;8.34;100.00
18790;BME280;9523;42.650;23.386;2023-02-28T07:38:49;95234.53;;;8.44;100.00
18790;BME280;9523;42.650;23.386;2023-02-28T07:41:17;95227.78;;;8.73;100.00
18790;BME280;9523;42.650;23.386;2023-02-28T07:43:44;95225.41;;;8.92;100.00
18790;BME280;9523;42.650;23.386;2023-02-28T07:46:13;95223.06;;;9.01;100.00
18790;BME280;9523;42.650;23.386;2023-02-28T07:48:41;95233.34;;;9.07;100.00
18790;BME280;9523;42.650;23.386;2023-02-28T07:51:10;95223.09;;;9.26;100.00
18790;BME280;9523;42.650;23.386;2023-02-28T07:53:40;95220.97;;;9.38;100.00
18790;BME280;9523;42.650;23.386;2023-02-28T07:56:07;95217.25;;;9.44;100.00
18790;BME280;9523;42.650;23.386;2023-02-28T07:58:36;95231.19;;;9.65;100.00
18790;BME280;9523;42.650;23.386;2023-02-28T08:01:06;95228.81;;;9.68;100.00
18790;BME280;9523;42.650;23.386;2023-02-28T08:03:34;95220.63;;;9.85;100.00
18790;BME280;9523;42.650;23.386;2023-02-28T08:06:01;95216.63;;;9.98;100.00
18790;BME280;9523;42.650;23.386;2023-02-28T08:08:31;95224.75;;;10.16;100.00
18790;BME280;9523;42.650;23.386;2023-02-28T08:10:58;95233.38;;;10.37;100.00
18790;BME280;9523;42.650;23.386;2023-02-28T08:13:26;95233.59;;;10.46;100.00
18790;BME280;9523;42.650;23.386;2023-02-28T08:15:54;95224.91;;;10.45;100.00
18790;BME280;9523;42.650;23.386;2023-02-28T08:18:21;95220.03;;;10.67;100.00
18790;BME280;9523;42.650;23.386;2023-02-28T08:20:48;95205.78;;;10.63;100.00
18790;BME280;9523;42.650;23.386;2023-02-28T08:23:15;95220.53;;;10.74;100.00
18790;BME280;9523;42.650;23.386;2023-02-28T08:25:44;95216.19;;;10.89;100.00
18790;BME280;9523;42.650;23.386;2023-02-28T08:28:11;95230.97;;;10.95;100.00
18790;BME280;9523;42.650;23.386;2023-02-28T08:30:38;95225.13;;;10.98;100.00
18790;BME280;9523;42.650;23.386;2023-02-28T08:33:06;95227.03;;;11.26;100.00
18790;BME280;9523;42.650;23.386;2023-02-28T08:35:35;95214.06;;;11.29;100.00
18790;BME280;9523;42.650;23.386;2023-02-28T08:38:03;95231.03;;;11.52;100.00
18790;BME280;9523;42.650;23.386;2023-02-28T08:40:30;95226.19;;;11.59;100.00
18790;BME280;9523;42.650;23.386;2023-02-28T08:43:00;95206.97;;;11.54;100.00
18790;BME280;9523;42.650;23.386;2023-02-28T08:45:27;95238.94;;;12.34;100.00
18790;BME280;9523;42.650;23.386;2023-02-28T08:47:54;95230.63;;;13.01;100.00
18790;BME280;9523;42.650;23.386;2023-02-28T08:50:21;95242.72;;;13.26;100.00
18790;BME280;9523;42.650;23.386;2023-02-28T08:52:48;95236.47;;;13.36;100.00
18790;BME280;9523;42.650;23.386;2023-02-28T08:55:18;95244.91;;;13.38;100.00
18790;BME280;9523;42.650;23.386;2023-02-28T08:57:45;95240.66;;;13.23;100.00
18790;BME280;9523;42.650;23.386;2023-02-28T09:00:14;95242.38;;;13.46;100.00
18790;BME280;9523;42.650;23.386;2023-02-28T09:02:41;95243.50;;;13.45;100.00
18790;BME280;9523;42.650;23.386;2023-02-28T09:05:09;95240.22;;;13.16;100.00
18790;BME280;9523;42.650;23.386;2023-02-28T09:07:36;95235.00;;;12.74;100.00
18790;BME280;9523;42.650;23.386;2023-02-28T09:10:03;95254.91;;;12.90;100.00
18790;BME280;9523;42.650;23.386;2023-02-28T09:12:33;95252.16;;;12.95;100.00
18790;BME280;9523;42.650;23.386;2023-02-28T09:15:01;95239.84;;;13.04;100.00
18790;BME280;9523;42.650;23.386;2023-02-28T09:17:29;95236.13;;;12.86;100.00
18790;BME280;9523;42.650;23.386;2023-02-28T09:19:57;95231.97;;;12.61;100.00
18790;BME280;9523;42.650;23.386;2023-02-28T09:22:23;95238.03;;;12.62;100.00
18790;BME280;9523;42.650;23.386;2023-02-28T09:24:50;95247.91;;;12.56;100.00
18790;BME280;9523;42.650;23.386;2023-02-28T09:27:17;95237.78;;;12.40;100.00
18790;BME280;9523;42.650;23.386;2023-02-28T09:29:44;95237.22;;;12.43;100.00
18790;BME280;9523;42.650;23.386;2023-02-28T09:32:13;95241.72;;;12.42;100.00
18790;BME280;9523;42.650;23.386;2023-02-28T09:34:41;95245.69;;;12.82;100.00
18790;BME280;9523;42.650;23.386;2023-02-28T09:37:08;95239.06;;;12.85;100.00
18790;BME280;9523;42.650;23.386;2023-02-28T09:39:35;95243.69;;;12.74;100.00
18790;BME280;9523;42.650;23.386;2023-02-28T09:42:03;95236.84;;;12.73;100.00
18790;BME280;9523;42.650;23.386;2023-02-28T09:44:33;95235.75;;;12.74;100.00
18790;BME280;9523;42.650;23.386;2023-02-28T09:47:07;95223.44;;;12.83;100.00
18790;BME280;9523;42.650;23.386;2023-02-28T09:49:42;95226.25;;;12.92;100.00
18790;BME280;9523;42.650;23.386;2023-02-28T09:52:14;95229.59;;;12.79;100.00
18790;BME280;9523;42.650;23.386;2023-02-28T09:54:42;95230.53;;;12.88;100.00
18790;BME280;9523;42.650;23.386;2023-02-28T09:57:19;95231.69;;;12.82;100.00
18790;BME280;9523;42.650;23.386;2023-02-28T10:00:01;95238.06;;;12.99;100.00
18790;BME280;9523;42.650;23.386;2023-02-28T10:02:52;95232.88;;;13.13;100.00
18790;BME280;9523;42.650;23.386;2023-02-28T10:05:27;95234.69;;;13.31;100.00
18790;BME280;9523;42.650;23.386;2023-02-28T10:08:11;95225.09;;;13.35;100.00
18790;BME280;9523;42.650;23.386;2023-02-28T10:10:42;95228.81;;;13.34;100.00
18790;BME280;9523;42.650;23.386;2023-02-28T10:13:23;95226.34;;;13.56;100.00
18790;BME280;9523;42.650;23.386;2023-02-28T10:15:53;95217.16;;;13.95;100.00
18790;BME280;9523;42.650;23.386;2023-02-28T10:18:26;95215.50;;;14.13;100.00
18790;BME280;9523;42.650;23.386;2023-02-28T10:20:56;95209.97;;;14.23;100.00
18790;BME280;9523;42.650;23.386;2023-02-28T10:23:27;95212.13;;;14.34;98.64
18790;BME280;9523;42.650;23.386;2023-02-28T10:25:58;95215.09;;;14.19;98.66
18790;BME280;9523;42.650;23.386;2023-02-28T10:28:32;95207.13;;;14.19;98.78
18790;BME280;9523;42.650;23.386;2023-02-28T10:30:59;95201.84;;;14.33;95.25
18790;BME280;9523;42.650;23.386;2023-02-28T10:33:29;95200.47;;;14.49;92.02
18790;BME280;9523;42.650;23.386;2023-02-28T10:35:58;95189.13;;;14.93;87.27
18790;BME280;9523;42.650;23.386;2023-02-28T10:38:27;95196.09;;;15.02;88.01
18790;BME280;9523;42.650;23.386;2023-02-28T10:41:04;95200.75;;;15.41;85.23
18790;BME280;9523;42.650;23.386;2023-02-28T10:43:31;95186.78;;;15.58;83.29
18790;BME280;9523;42.650;23.386;2023-02-28T10:46:02;95184.75;;;15.86;80.00
18790;BME280;9523;42.650;23.386;2023-02-28T10:48:34;95180.84;;;16.31;73.26
18790;BME280;9523;42.650;23.386;2023-02-28T10:51:05;95180.38;;;16.38;73.46
18790;BME280;9523;42.650;23.386;2023-02-28T10:53:37;95176.38;;;16.58;70.95
18790;BME280;9523;42.650;23.386;2023-02-28T10:56:14;95177.94;;;16.59;69.84
18790;BME280;9523;42.650;23.386;2023-02-28T10:58:47;95166.22;;;16.12;70.14
18790;BME280;9523;42.650;23.386;2023-02-28T11:01:15;95162.50;;;15.82;72.38
18790;BME280;9523;42.650;23.386;2023-02-28T11:03:43;95156.91;;;15.92;71.47
18790;BME280;9523;42.650;23.386;2023-02-28T11:06:16;95165.03;;;15.87;71.16
18790;BME280;9523;42.650;23.386;2023-02-28T11:08:46;95156.13;;;15.61;76.45
18790;BME280;9523;42.650;23.386;2023-02-28T11:11:15;95144.69;;;15.52;72.64
18790;BME280;9523;42.650;23.386;2023-02-28T11:13:44;95142.69;;;15.35;75.84
18790;BME280;9523;42.650;23.386;2023-02-28T11:16:13;95151.09;;;15.50;74.71
18790;BME280;9523;42.650;23.386;2023-02-28T11:18:44;95133.66;;;15.67;75.48
18790;BME280;9523;42.650;23.386;2023-02-28T11:21:21;95091.66;;;16.03;71.25
18790;BME280;9523;42.650;23.386;2023-02-28T11:23:51;95133.56;;;16.45;67.91
18790;BME280;9523;42.650;23.386;2023-02-28T11:26:40;95141.25;;;16.56;66.24
18790;BME280;9523;42.650;23.386;2023-02-28T11:29:18;95146.81;;;16.11;69.08
18790;BME280;9523;42.650;23.386;2023-02-28T11:32:02;95144.84;;;15.86;70.22
18790;BME280;9523;42.650;23.386;2023-02-28T11:34:30;95137.06;;;15.59;72.71
18790;BME280;9523;42.650;23.386;2023-02-28T11:37:00;95150.78;;;15.30;76.12
18790;BME280;9523;42.650;23.386;2023-02-28T11:39:30;95147.09;;;15.17;77.66
18790;BME280;9523;42.650;23.386;2023-02-28T11:42:18;95142.66;;;15.04;79.10
18790;BME280;9523;42.650;23.386;2023-02-28T11:44:59;95144.38;;;14.86;79.69
18790;BME280;9523;42.650;23.386;2023-02-28T11:47:33;95122.94;;;14.61;81.18
18790;BME280;9523;42.650;23.386;2023-02-28T11:50:22;95134.97;;;14.80;81.48
18790;BME280;9523;42.650;23.386;2023-02-28T11:52:55;95107.59;;;15.02;79.96
18790;BME280;9523;42.650;23.386;2023-02-28T11:55:26;95129.53;;;15.52;75.44
18790;BME280;9523;42.650;23.386;2023-02-28T11:58:10;95127.66;;;15.53;74.34
18790;BME280;9523;42.650;23.386;2023-02-28T12:00:55;95123.03;;;15.44;75.38
18790;BME280;9523;42.650;23.386;2023-02-28T12:03:29;95131.25;;;15.34;75.89
18790;BME280;9523;42.650;23.386;2023-02-28T12:06:06;95122.66;;;15.07;75.92
18790;BME280;9523;42.650;23.386;2023-02-28T12:08:51;95122.72;;;15.15;75.90
18790;BME280;9523;42.650;23.386;2023-02-28T12:11:32;95127.28;;;15.23;76.12
18790;BME280;9523;42.650;23.386;2023-02-28T12:14:21;95129.03;;;15.28;75.52
18790;BME280;9523;42.650;23.386;2023-02-28T12:16:59;95124.63;;;15.23;74.93
18790;BME280;9523;42.650;23.386;2023-02-28T12:19:34;95126.28;;;15.41;72.86
18790;BME280;9523;42.650;23.386;2023-02-28T12:22:28;95114.78;;;15.24;72.85
18790;BME280;9523;42.650;23.386;2023-02-28T12:25:24;95118.47;;;15.36;71.65
18790;BME280;9523;42.650;23.386;2023-02-28T12:27:59;95112.69;;;15.12;72.53
18790;BME280;9523;42.650;23.386;2023-02-28T12:30:29;95116.81;;;14.96;77.43
18790;BME280;9523;42.650;23.386;2023-02-28T12:33:04;95120.72;;;14.98;74.46
18790;BME280;9523;42.650;23.386;2023-02-28T12:35:34;95117.34;;;15.07;74.83
18790;BME280;9523;42.650;23.386;2023-02-28T12:38:05;95110.50;;;15.14;74.26
18790;BME280;9523;42.650;23.386;2023-02-28T12:40:44;95125.03;;;15.08;74.78
18790;BME280;9523;42.650;23.386;2023-02-28T12:43:13;95119.19;;;15.28;72.23
18790;BME280;9523;42.650;23.386;2023-02-28T12:45:44;95117.75;;;15.22;72.54
18790;BME280;9523;42.650;23.386;2023-02-28T12:48:17;95104.84;;;15.07;74.11
18790;BME280;9523;42.650;23.386;2023-02-28T12:50:47;95112.44;;;14.78;74.69
18790;BME280;9523;42.650;23.386;2023-02-28T12:53:21;95105.16;;;14.83;74.08
18790;BME280;9523;42.650;23.386;2023-02-28T12:55:58;95108.34;;;14.72;75.69
18790;BME280;9523;42.650;23.386;2023-02-28T12:58:33;95101.09;;;14.64;74.83
18790;BME280;9523;42.650;23.386;2023-02-28T13:01:19;95115.44;;;14.40;76.52
18790;BME280;9523;42.650;23.386;2023-02-28T13:04:24;95108.84;;;14.38;77.05
18790;BME280;9523;42.650;23.386;2023-02-28T13:07:08;95107.66;;;14.30;78.39
18790;BME280;9523;42.650;23.386;2023-02-28T13:09:40;95097.97;;;14.12;79.66
18790;BME280;9523;42.650;23.386;2023-02-28T13:12:14;95105.19;;;14.34;77.65
18790;BME280;9523;42.650;23.386;2023-02-28T13:14:42;95114.53;;;14.31;79.71
18790;BME280;9523;42.650;23.386;2023-02-28T13:17:17;95112.25;;;14.74;79.56
18790;BME280;9523;42.650;23.386;2023-02-28T13:19:56;95111.84;;;15.03;73.54
18790;BME280;9523;42.650;23.386;2023-02-28T13:22:40;95103.53;;;15.27;71.04
18790;BME280;9523;42.650;23.386;2023-02-28T13:34:40;95098.19;;;14.74;70.58
18790;BME280;9523;42.650;23.386;2023-02-28T13:37:32;95102.66;;;14.87;69.40